createdAt,value
2019-04-04T00:02:19.136Z,7.95
2019-04-04T00:04:47.576Z,8.23
2019-04-04T00:07:15.830Z,7.33
2019-04-04T00:09:44.105Z,7.78
2019-04-04T00:12:12.353Z,7.95
2019-04-04T00:14:43.504Z,7.78
2019-04-04T00:17:10.607Z,9.50
2019-04-04T00:19:38.881Z,8.40
2019-04-04T00:22:07.130Z,8.83
2019-04-04T00:24:35.406Z,8.40
2019-04-04T00:27:03.669Z,10.10
2019-04-04T00:29:33.286Z,8.85
2019-04-04T00:32:01.531Z,7.97
2019-04-04T00:34:29.820Z,7.80
2019-04-04T00:36:58.073Z,7.97
2019-04-04T00:39:26.351Z,8.88
2019-04-04T00:41:54.606Z,9.53
2019-04-04T00:44:23.741Z,9.20
2019-04-04T00:46:52.750Z,9.85
2019-04-04T00:49:21.346Z,9.00
2019-04-04T00:51:49.620Z,9.55
2019-04-04T00:54:17.873Z,10.23
2019-04-04T00:56:46.911Z,11.48
2019-04-04T00:59:16.129Z,11.63
2019-04-04T01:01:44.411Z,10.75
2019-04-04T01:04:12.960Z,11.05
2019-04-04T01:06:41.910Z,11.15
2019-04-04T01:09:13.098Z,11.00
2019-04-04T01:11:40.943Z,11.33
2019-04-04T01:14:09.208Z,11.78
2019-04-04T01:16:37.482Z,10.90
2019-04-04T01:19:05.734Z,9.95
2019-04-04T01:21:34.013Z,10.78
2019-04-04T01:24:02.347Z,9.80
2019-04-04T01:26:34.841Z,11.22
2019-04-04T01:29:01.379Z,12.00
2019-04-04T01:31:29.731Z,12.82
2019-04-04T01:33:57.981Z,13.88
2019-04-04T01:36:26.260Z,13.30
2019-04-04T01:38:54.517Z,12.58
2019-04-04T01:41:22.795Z,13.38
2019-04-04T01:44:04.316Z,12.25
2019-04-04T01:46:22.390Z,10.10
2019-04-04T01:48:50.963Z,11.30
2019-04-04T01:51:19.283Z,10.85
2019-04-04T01:53:48.954Z,10.70
2019-04-04T01:56:17.962Z,12.20
2019-04-04T01:58:46.239Z,10.15
2019-04-04T02:01:16.264Z,9.73
2019-04-04T02:03:44.489Z,9.78
2019-04-04T02:06:13.508Z,9.73
2019-04-04T02:08:41.792Z,11.97
2019-04-04T02:11:10.718Z,10.72
2019-04-04T02:13:40.885Z,10.63
2019-04-04T02:16:08.983Z,12.90
2019-04-04T02:18:37.263Z,11.80
2019-04-04T02:21:06.306Z,11.40
2019-04-04T02:23:34.565Z,11.97
2019-04-04T02:26:04.835Z,9.75
2019-04-04T02:28:33.065Z,11.00
2019-04-04T02:31:01.491Z,11.40
2019-04-04T02:33:32.410Z,12.98
2019-04-04T02:35:59.750Z,13.90
2019-04-04T02:38:28.299Z,15.50
2019-04-04T02:40:56.665Z,14.98
2019-04-04T02:43:28.388Z,14.05
2019-04-04T02:45:54.930Z,14.78
2019-04-04T02:48:24.703Z,17.35
2019-04-04T02:50:54.781Z,17.62
2019-04-04T02:53:23.063Z,19.82
2019-04-04T02:55:51.683Z,20.45
2019-04-04T02:58:19.964Z,20.40
2019-04-04T03:00:48.592Z,20.60
2019-04-04T03:03:17.435Z,19.35
2019-04-04T03:05:50.951Z,19.75
2019-04-04T03:08:15.701Z,19.02
2019-04-04T03:10:47.785Z,20.15
2019-04-04T03:13:14.627Z,20.97
2019-04-04T03:15:47.140Z,20.70
2019-04-04T03:18:12.885Z,17.90
2019-04-04T03:20:41.139Z,22.05
2019-04-04T03:23:09.390Z,18.05
2019-04-04T03:25:38.244Z,18.57
2019-04-04T03:28:06.510Z,18.45
2019-04-04T03:30:34.794Z,21.85
2019-04-04T03:33:03.646Z,20.15
2019-04-04T03:35:31.916Z,19.35
2019-04-04T03:38:00.143Z,20.97
2019-04-04T03:40:28.421Z,19.55
2019-04-04T03:42:56.685Z,20.20
2019-04-04T03:45:27.335Z,22.30
2019-04-04T03:47:55.512Z,18.82
2019-04-04T03:50:29.020Z,18.67
2019-04-04T03:52:55.105Z,15.58
2019-04-04T03:55:27.354Z,16.37
2019-04-04T03:57:55.142Z,15.25
2019-04-04T04:00:27.243Z,14.40
2019-04-04T04:02:55.494Z,12.88
2019-04-04T04:05:33.969Z,15.48
2019-04-04T04:07:58.872Z,15.55
2019-04-04T04:10:27.146Z,18.60
2019-04-04T04:12:55.401Z,19.23
2019-04-04T04:15:29.238Z,18.85
2019-04-04T04:17:55.437Z,15.40
2019-04-04T04:20:23.691Z,15.55
2019-04-04T04:22:52.738Z,16.25
2019-04-04T04:25:21.294Z,16.80
2019-04-04T04:27:50.544Z,17.57
2019-04-04T04:30:18.804Z,16.37
2019-04-04T04:32:47.648Z,14.73
2019-04-04T04:35:16.570Z,16.02
2019-04-04T04:37:44.847Z,17.50
2019-04-04T04:40:15.109Z,21.75
2019-04-04T04:42:43.633Z,21.82
2019-04-04T04:45:12.491Z,20.77
2019-04-04T04:47:41.221Z,21.87
2019-04-04T04:50:10.003Z,24.10
2019-04-04T04:52:38.429Z,27.27
2019-04-04T04:55:06.683Z,26.80
2019-04-04T04:57:37.141Z,27.93
2019-04-04T05:00:05.584Z,23.85
2019-04-04T05:02:33.866Z,23.92
2019-04-04T05:05:02.120Z,20.27
2019-04-04T05:07:31.329Z,20.32
2019-04-04T05:09:59.582Z,18.87
2019-04-04T05:12:27.857Z,18.92
2019-04-04T05:14:56.114Z,21.05
2019-04-04T05:17:24.961Z,18.80
2019-04-04T05:19:53.992Z,27.32
2019-04-04T05:22:22.265Z,20.20
2019-04-04T05:25:06.706Z,29.63
2019-04-04T05:27:20.544Z,23.10
2019-04-04T05:29:48.801Z,19.05
2019-04-04T05:32:17.081Z,21.73
2019-04-04T05:34:45.335Z,13.83
2019-04-04T05:37:13.636Z,13.30
2019-04-04T05:39:41.868Z,11.48
2019-04-04T05:42:10.720Z,20.55
2019-04-04T05:44:41.278Z,23.38
2019-04-04T05:47:09.556Z,44.80
2019-04-04T05:49:38.189Z,22.45
2019-04-04T05:52:08.934Z,24.23
2019-04-04T05:54:39.188Z,19.52
2019-04-04T05:57:07.845Z,23.27
2019-04-04T05:59:37.505Z,21.30
2019-04-04T06:02:05.775Z,17.45
2019-04-04T06:04:34.310Z,21.87
2019-04-04T06:07:04.345Z,19.87
2019-04-04T06:09:32.565Z,20.65
2019-04-04T06:12:00.843Z,19.20
2019-04-04T06:14:29.980Z,18.25
2019-04-04T06:16:58.956Z,18.75
2019-04-04T06:19:27.213Z,20.00
2019-04-04T06:21:55.492Z,19.80
2019-04-04T06:24:25.187Z,20.27
2019-04-04T06:26:53.725Z,21.23
2019-04-04T06:29:22.006Z,21.85
2019-04-04T06:31:50.930Z,18.05
2019-04-04T06:34:19.213Z,17.75
2019-04-04T06:36:49.060Z,16.87
2019-04-04T06:41:46.298Z,18.17
2019-04-04T06:44:15.153Z,19.52
2019-04-04T06:46:43.395Z,18.12
2019-04-04T06:49:11.671Z,18.20
2019-04-04T06:51:40.700Z,20.32
2019-04-04T06:54:09.646Z,21.68
2019-04-04T06:56:37.902Z,18.37
2019-04-04T06:59:06.177Z,18.55
2019-04-04T07:01:34.433Z,22.00
2019-04-04T07:04:04.085Z,23.95
2019-04-04T07:06:32.306Z,20.72
2019-04-04T07:09:00.585Z,23.65
2019-04-04T07:11:28.842Z,22.02
2019-04-04T07:13:59.182Z,19.55
2019-04-04T07:16:27.665Z,19.52
2019-04-04T07:18:55.943Z,21.73
2019-04-04T07:21:24.534Z,20.52
2019-04-04T07:23:52.809Z,20.55
2019-04-04T07:26:21.068Z,21.55
2019-04-04T07:28:53.744Z,21.95
2019-04-04T07:31:20.667Z,21.42
2019-04-04T07:33:49.716Z,19.92
2019-04-04T07:36:18.185Z,18.90
2019-04-04T07:38:47.977Z,17.82
2019-04-04T07:41:16.492Z,17.12
2019-04-04T07:43:44.763Z,18.17
2019-04-04T07:46:16.839Z,18.60
2019-04-04T07:48:43.791Z,18.35
2019-04-04T07:51:12.047Z,18.73
2019-04-04T07:53:40.331Z,19.45
2019-04-04T07:56:08.584Z,19.70
2019-04-04T07:58:36.861Z,20.25
2019-04-04T08:01:05.891Z,18.30
2019-04-04T08:03:34.462Z,20.08
2019-04-04T08:06:02.714Z,19.50
2019-04-04T08:08:30.996Z,19.60
2019-04-04T08:10:59.818Z,18.90
2019-04-04T08:13:28.104Z,18.60
2019-04-04T08:15:56.355Z,18.35
2019-04-04T08:18:24.632Z,20.23
2019-04-04T08:20:52.886Z,17.35
2019-04-04T08:23:21.167Z,18.70
2019-04-04T08:25:49.422Z,17.92
2019-04-04T08:28:18.469Z,17.60
2019-04-04T08:30:46.725Z,18.15
2019-04-04T08:33:15.002Z,18.15
2019-04-04T08:35:43.260Z,17.35
2019-04-04T08:38:12.306Z,16.37
2019-04-04T08:40:40.566Z,17.10
2019-04-04T08:43:08.847Z,17.23
2019-04-04T08:45:37.104Z,16.77
2019-04-04T08:48:05.359Z,16.87
2019-04-04T08:50:33.641Z,16.17
2019-04-04T08:53:01.892Z,16.55
2019-04-04T08:55:30.169Z,16.37
2019-04-04T08:57:58.425Z,16.77
2019-04-04T09:00:27.470Z,16.97
2019-04-04T09:02:55.731Z,16.35
2019-04-04T09:05:24.007Z,15.13
2019-04-04T09:07:52.263Z,16.57
2019-04-04T09:10:21.317Z,16.05
2019-04-04T09:12:50.247Z,17.48
2019-04-04T09:15:18.526Z,17.02
2019-04-04T09:17:46.780Z,15.60
2019-04-04T09:20:15.055Z,17.40
2019-04-04T09:22:43.313Z,16.05
2019-04-04T09:25:11.591Z,14.58
2019-04-04T09:27:40.415Z,13.93
2019-04-04T09:30:09.807Z,15.35
2019-04-04T09:32:38.062Z,15.48
2019-04-04T09:35:07.113Z,15.45
2019-04-04T09:37:35.664Z,14.43
2019-04-04T09:40:05.979Z,15.43
2019-04-04T09:42:35.001Z,17.87
2019-04-04T09:45:04.085Z,17.10
2019-04-04T09:47:32.353Z,17.85
2019-04-04T09:50:01.201Z,18.42
2019-04-04T09:52:29.453Z,18.32
2019-04-04T09:54:58.010Z,18.17
2019-04-04T09:57:26.266Z,18.00
2019-04-04T09:59:54.554Z,18.50
2019-04-04T10:02:22.805Z,17.87
2019-04-04T10:04:51.111Z,19.20
2019-04-04T10:07:19.362Z,17.92
2019-04-04T10:09:47.647Z,17.00
2019-04-04T10:12:15.904Z,19.00
2019-04-04T10:14:44.186Z,20.55
2019-04-04T10:17:12.445Z,19.15
2019-04-04T10:19:40.724Z,20.65
2019-04-04T10:22:09.546Z,20.02
2019-04-04T10:24:38.393Z,18.92
2019-04-04T10:27:07.421Z,19.30
2019-04-04T10:29:35.698Z,18.75
2019-04-04T10:32:05.291Z,18.25
2019-04-04T10:34:33.545Z,18.82
2019-04-04T10:37:02.401Z,18.23
2019-04-04T10:39:32.787Z,18.55
2019-04-04T10:42:00.714Z,17.98
2019-04-04T10:44:29.475Z,18.00
2019-04-04T10:46:58.526Z,18.45
2019-04-04T10:49:27.356Z,17.98
2019-04-04T10:51:55.970Z,14.78
2019-04-04T10:54:24.217Z,16.45
2019-04-04T10:56:52.500Z,17.07
2019-04-04T10:59:20.754Z,16.32
2019-04-04T11:01:49.897Z,17.00
2019-04-04T11:04:18.150Z,17.25
2019-04-04T11:06:46.428Z,19.67
2019-04-04T11:09:14.681Z,20.40
2019-04-04T11:11:42.959Z,20.25
2019-04-04T11:14:11.296Z,21.30
2019-04-04T11:16:39.870Z,20.85
2019-04-04T11:19:09.807Z,19.87
2019-04-04T11:21:38.151Z,20.25
2019-04-04T11:24:06.405Z,20.45
2019-04-04T11:26:34.688Z,21.10
2019-04-04T11:29:02.942Z,21.05
2019-04-04T11:31:31.490Z,21.52
2019-04-04T11:34:01.082Z,21.10
2019-04-04T11:36:29.365Z,22.62
2019-04-04T11:38:57.630Z,21.70
2019-04-04T11:41:25.908Z,23.42
2019-04-04T11:43:54.831Z,23.02
2019-04-04T11:46:23.112Z,23.07
2019-04-04T11:48:51.933Z,22.93
2019-04-04T11:51:20.783Z,24.15
2019-04-04T11:53:49.039Z,24.47
2019-04-04T11:56:18.655Z,23.38
2019-04-04T11:58:46.905Z,24.07
2019-04-04T12:01:16.821Z,24.07
2019-04-04T12:03:45.079Z,25.12
2019-04-04T12:06:13.368Z,23.22
2019-04-04T12:08:41.888Z,24.05
2019-04-04T12:11:10.165Z,24.23
2019-04-04T12:13:38.995Z,24.70
2019-04-04T12:16:07.274Z,23.27
2019-04-04T12:18:35.526Z,22.73
2019-04-04T12:21:03.804Z,23.67
2019-04-04T12:23:32.628Z,25.30
2019-04-04T12:26:00.905Z,26.40
2019-04-04T12:28:29.440Z,26.10
2019-04-04T12:30:58.386Z,24.10
2019-04-04T12:33:26.643Z,25.62
2019-04-04T12:35:55.491Z,24.67
2019-04-04T12:38:23.748Z,24.43
2019-04-04T12:40:52.033Z,25.65
2019-04-04T12:43:20.286Z,24.67
2019-04-04T12:45:48.634Z,27.15
2019-04-04T12:48:16.889Z,25.02
2019-04-04T12:50:48.282Z,25.35
2019-04-04T12:53:16.387Z,27.60
2019-04-04T12:55:44.646Z,25.12
2019-04-04T12:58:12.918Z,26.90
2019-04-04T13:00:41.170Z,26.40
2019-04-04T13:03:09.446Z,26.68
2019-04-04T13:05:37.702Z,24.95
2019-04-04T13:08:05.983Z,26.97
2019-04-04T13:10:34.561Z,27.15
2019-04-04T13:13:02.841Z,28.35
2019-04-04T13:15:31.864Z,29.32
2019-04-04T13:18:00.714Z,29.07
2019-04-04T13:20:28.968Z,27.20
2019-04-04T13:22:57.246Z,28.52
2019-04-04T13:25:25.502Z,26.40
2019-04-04T13:27:53.785Z,29.98
2019-04-04T13:30:22.206Z,26.20
2019-04-04T13:32:50.492Z,28.20
2019-04-04T13:35:19.077Z,26.77
2019-04-04T13:37:47.351Z,29.25
2019-04-04T13:40:15.606Z,26.73
2019-04-04T13:42:43.883Z,30.30
2019-04-04T13:45:12.135Z,29.98
2019-04-04T13:47:40.669Z,30.70
2019-04-04T13:50:12.302Z,32.13
2019-04-04T13:55:06.872Z,31.52
2019-04-04T13:57:35.151Z,32.63
2019-04-04T14:00:06.148Z,34.80
2019-04-04T14:02:34.431Z,34.03
2019-04-04T14:05:09.653Z,33.60
2019-04-04T14:07:33.622Z,33.35
2019-04-04T14:10:01.879Z,30.77
2019-04-04T14:12:30.235Z,33.50
2019-04-04T14:14:58.490Z,33.55
2019-04-04T14:17:26.769Z,32.50
2019-04-04T14:19:55.598Z,32.95
2019-04-04T14:22:24.446Z,34.88
2019-04-04T14:24:53.276Z,33.28
2019-04-04T14:27:21.563Z,34.53
2019-04-04T14:29:49.815Z,35.17
2019-04-04T14:32:20.929Z,34.80
2019-04-04T14:34:48.069Z,34.83
2019-04-04T14:37:16.351Z,35.28
2019-04-04T14:39:45.381Z,35.55
2019-04-04T14:42:14.230Z,35.58
2019-04-04T14:44:42.492Z,37.28
2019-04-04T14:47:10.749Z,37.40
2019-04-04T14:49:39.026Z,40.85
2019-04-04T14:52:07.302Z,39.83
2019-04-04T14:54:35.567Z,38.10
2019-04-04T14:57:03.823Z,41.80
2019-04-04T14:59:32.570Z,40.23
2019-04-04T15:02:01.399Z,40.70
2019-04-04T15:04:29.678Z,43.75
2019-04-04T15:06:57.938Z,40.23
2019-04-04T15:09:26.892Z,42.60
2019-04-04T15:11:55.147Z,41.48
2019-04-04T15:14:23.994Z,41.25
2019-04-04T15:16:52.584Z,42.43
2019-04-04T15:19:21.430Z,40.90
2019-04-04T15:21:49.686Z,40.12
2019-04-04T15:24:17.966Z,43.60
2019-04-04T15:26:46.493Z,45.63
2019-04-04T15:29:15.546Z,40.85
2019-04-04T15:31:44.570Z,42.10
2019-04-04T15:34:12.855Z,41.37
2019-04-04T15:36:41.109Z,41.25
2019-04-04T15:39:10.167Z,40.60
2019-04-04T15:41:38.429Z,41.23
2019-04-04T15:44:06.708Z,41.83
2019-04-04T15:46:34.968Z,41.10
2019-04-04T15:49:03.253Z,43.78
2019-04-04T15:51:31.509Z,42.58
2019-04-04T15:53:59.790Z,42.48
2019-04-04T15:56:28.045Z,42.90
2019-04-04T15:58:56.323Z,43.78
2019-04-04T16:01:24.578Z,41.80
2019-04-04T16:03:53.953Z,39.48
2019-04-04T16:06:22.879Z,43.00
2019-04-04T16:08:51.163Z,42.58
2019-04-04T16:11:19.420Z,43.40
2019-04-04T16:13:47.700Z,42.58
2019-04-04T16:16:15.967Z,43.00
2019-04-04T16:18:44.237Z,44.08
2019-04-04T16:21:12.498Z,43.48
2019-04-04T16:23:41.094Z,43.65
2019-04-04T16:26:10.090Z,42.75
2019-04-04T16:28:38.367Z,41.00
2019-04-04T16:31:06.624Z,41.00
2019-04-04T16:33:36.239Z,43.68
2019-04-04T16:36:05.567Z,45.08
2019-04-04T16:38:34.028Z,44.18
2019-04-04T16:41:02.847Z,42.65
2019-04-04T16:43:31.128Z,44.50
2019-04-04T16:45:59.954Z,46.48
2019-04-04T16:48:28.211Z,46.23
2019-04-04T16:50:56.489Z,46.63
2019-04-04T16:53:24.916Z,46.58
2019-04-04T16:55:53.194Z,45.80
2019-04-04T16:58:21.451Z,48.30
2019-04-04T17:00:49.727Z,48.28
2019-04-04T17:03:18.656Z,49.45
2019-04-04T17:05:46.933Z,49.27
2019-04-04T17:08:15.217Z,47.93
2019-04-04T17:10:44.105Z,47.78
2019-04-04T17:13:12.363Z,45.63
2019-04-04T17:15:41.406Z,45.78
2019-04-04T17:18:09.662Z,45.23
2019-04-04T17:20:38.520Z,45.78
2019-04-04T17:23:06.849Z,45.17
2019-04-04T17:25:35.131Z,47.58
2019-04-04T17:28:03.432Z,47.67
2019-04-04T17:30:32.477Z,46.25
2019-04-04T17:33:01.132Z,45.40
2019-04-04T17:35:29.859Z,42.08
2019-04-04T17:37:58.119Z,46.50
2019-04-04T17:40:26.392Z,47.20
2019-04-04T17:42:54.697Z,43.13
2019-04-04T17:45:25.247Z,45.92
2019-04-04T17:47:53.576Z,47.98
2019-04-04T17:50:21.904Z,46.77
2019-04-04T17:52:50.629Z,48.33
2019-04-04T17:55:18.949Z,45.08
2019-04-04T17:57:47.738Z,48.10
2019-04-04T18:00:16.410Z,49.18
2019-04-04T18:02:44.686Z,50.92
2019-04-04T18:05:13.534Z,48.63
2019-04-04T18:07:41.794Z,50.85
2019-04-04T18:12:42.537Z,50.75
2019-04-04T18:15:10.821Z,47.75
2019-04-04T18:17:39.082Z,50.58
2019-04-04T18:20:07.736Z,50.12
2019-04-04T18:22:36.064Z,50.88
2019-04-04T18:25:08.067Z,48.98
2019-04-04T18:27:36.325Z,44.95
2019-04-04T18:30:07.865Z,43.90
2019-04-04T18:32:36.122Z,46.55
2019-04-04T18:35:06.217Z,44.48
2019-04-04T18:37:34.556Z,44.50
2019-04-04T18:40:03.203Z,42.10
2019-04-04T18:42:31.459Z,44.93
2019-04-04T18:44:59.747Z,44.80
2019-04-04T18:47:28.003Z,43.73
2019-04-04T18:49:56.285Z,43.63
2019-04-04T18:52:24.538Z,39.88
2019-04-04T18:54:52.800Z,39.63
2019-04-04T18:57:21.082Z,37.03
2019-04-04T18:59:49.341Z,40.55
2019-04-04T19:02:17.613Z,40.40
2019-04-04T19:04:45.872Z,40.43
2019-04-04T19:07:14.155Z,38.63
2019-04-04T19:09:42.417Z,36.83
2019-04-04T19:12:10.695Z,40.75
2019-04-04T19:14:38.952Z,38.60
2019-04-04T19:17:07.226Z,35.48
2019-04-04T19:19:35.486Z,37.48
2019-04-04T19:22:03.770Z,38.02
2019-04-04T19:24:32.022Z,37.17
2019-04-04T19:27:00.303Z,38.25
2019-04-04T19:29:31.416Z,37.95
2019-04-04T19:31:58.563Z,36.28
2019-04-04T19:34:26.829Z,36.73
2019-04-04T19:36:55.368Z,36.03
2019-04-04T19:39:23.627Z,36.45
2019-04-04T19:41:51.902Z,35.45
2019-04-04T19:44:20.165Z,36.53
2019-04-04T19:46:48.453Z,35.83
2019-04-04T19:49:16.702Z,36.58
2019-04-04T19:51:44.988Z,36.42
2019-04-04T19:54:13.239Z,35.17
2019-04-04T19:56:41.607Z,35.92
2019-04-04T19:59:09.858Z,38.53
2019-04-04T20:01:38.198Z,35.80
2019-04-04T20:04:06.464Z,34.73
2019-04-04T20:06:34.749Z,32.67
2019-04-04T20:09:03.006Z,38.00
2019-04-04T20:11:31.282Z,34.73
2019-04-04T20:13:59.543Z,35.52
2019-04-04T20:16:27.822Z,36.33
2019-04-04T20:18:56.073Z,34.88
2019-04-04T20:21:24.352Z,34.75
2019-04-04T20:23:52.610Z,34.08
2019-04-04T20:26:21.553Z,33.08
2019-04-04T20:28:49.806Z,32.23
2019-04-04T20:31:18.088Z,32.98
2019-04-04T20:33:46.343Z,33.00
2019-04-04T20:36:14.621Z,35.80
2019-04-04T20:38:43.559Z,31.37
2019-04-04T20:41:12.601Z,33.55
2019-04-04T20:43:43.476Z,32.50
2019-04-04T20:46:12.264Z,33.33
2019-04-04T20:48:40.518Z,33.58
2019-04-04T20:51:08.770Z,32.03
2019-04-04T20:53:37.057Z,32.00
2019-04-04T20:56:05.659Z,33.40
2019-04-04T20:58:33.940Z,33.92
2019-04-04T21:01:02.225Z,33.88
2019-04-04T21:03:30.509Z,34.50
2019-04-04T21:05:58.763Z,31.82
2019-04-04T21:08:27.055Z,33.88
2019-04-04T21:10:55.312Z,33.05
2019-04-04T21:13:23.858Z,32.17
2019-04-04T21:15:52.129Z,32.25
2019-04-04T21:18:20.406Z,33.60
2019-04-04T21:20:48.662Z,35.25
2019-04-04T21:23:17.225Z,31.80
2019-04-04T21:25:45.480Z,33.63
2019-04-04T21:28:13.826Z,33.80
2019-04-04T21:30:42.858Z,33.45
2019-04-04T21:33:11.142Z,32.53
2019-04-04T21:35:39.962Z,31.27
2019-04-04T21:38:08.817Z,31.50
2019-04-04T21:40:37.075Z,30.80
2019-04-04T21:43:05.356Z,32.03
2019-04-04T21:45:33.621Z,31.52
2019-04-04T21:48:01.900Z,31.55
2019-04-04T21:50:30.155Z,30.15
2019-04-04T21:52:58.435Z,29.72
2019-04-04T21:55:26.690Z,27.80
2019-04-04T21:57:55.533Z,27.22
2019-04-04T22:00:25.425Z,25.62
2019-04-04T22:02:53.706Z,28.02
2019-04-04T22:05:22.539Z,25.90
2019-04-04T22:07:50.818Z,26.30
2019-04-04T22:10:19.074Z,26.65
2019-04-04T22:12:48.120Z,28.52
2019-04-04T22:15:16.379Z,27.65
2019-04-04T22:17:44.659Z,25.57
2019-04-04T22:20:12.917Z,22.93
2019-04-04T22:22:41.763Z,25.48
2019-04-04T22:25:10.023Z,24.72
2019-04-04T22:27:38.306Z,25.65
2019-04-04T22:30:09.389Z,24.43
2019-04-04T22:32:37.678Z,25.65
2019-04-04T22:35:06.602Z,26.25
2019-04-04T22:37:35.545Z,26.55
2019-04-04T22:40:06.043Z,28.15
2019-04-04T22:42:34.324Z,30.55
2019-04-04T22:45:03.349Z,31.97
2019-04-04T22:47:32.399Z,32.90
2019-04-04T22:50:00.656Z,30.17
2019-04-04T22:52:29.707Z,32.25
2019-04-04T22:54:57.963Z,30.08
2019-04-04T22:57:26.992Z,29.42
2019-04-04T22:59:55.265Z,29.65
2019-04-04T23:02:24.094Z,30.68
2019-04-04T23:04:52.376Z,29.35
2019-04-04T23:07:20.632Z,31.45
2019-04-04T23:09:49.583Z,32.30
2019-04-04T23:12:17.841Z,29.92
2019-04-04T23:14:48.401Z,30.50
2019-04-04T23:17:17.397Z,29.80
2019-04-04T23:19:45.676Z,29.20
2019-04-04T23:22:13.929Z,28.38
2019-04-04T23:24:42.214Z,31.12
2019-04-04T23:27:10.472Z,28.35
2019-04-04T23:29:38.757Z,31.12
2019-04-04T23:32:07.016Z,29.72
2019-04-04T23:34:35.301Z,29.32
2019-04-04T23:37:03.564Z,31.80
2019-04-04T23:39:31.842Z,31.02
2019-04-04T23:42:00.106Z,32.03
2019-04-04T23:44:28.386Z,34.70
2019-04-04T23:46:56.656Z,35.13
2019-04-04T23:49:24.957Z,35.38
2019-04-04T23:51:53.200Z,38.05
2019-04-04T23:54:21.489Z,37.23
2019-04-04T23:56:50.314Z,42.78
2019-04-04T23:59:18.597Z,36.48
